sensor_id;sensor_type;location;lat;lon;timestamp;P1;durP1;ratioP1;P2;durP2;ratioP2
16254;SDS011;8235;52.198;9.904;2022-10-16T00:00:34;1.33;;;0.90;;
16254;SDS011;8235;52.198;9.904;2022-10-16T00:03:02;1.93;;;0.63;;
16254;SDS011;8235;52.198;9.904;2022-10-16T00:05:28;3.50;;;1.30;;
16254;SDS011;8235;52.198;9.904;2022-10-16T00:07:55;3.53;;;0.87;;
16254;SDS011;8235;52.198;9.904;2022-10-16T00:10:23;0.97;;;0.80;;
16254;SDS011;8235;52.198;9.904;2022-10-16T00:12:50;0.97;;;0.80;;
16254;SDS011;8235;52.198;9.904;2022-10-16T00:15:16;2.40;;;1.20;;
16254;SDS011;8235;52.198;9.904;2022-10-16T00:17:43;1.67;;;0.90;;
16254;SDS011;8235;52.198;9.904;2022-10-16T00:20:09;1.23;;;1.13;;
16254;SDS011;8235;52.198;9.904;2022-10-16T00:22:38;1.50;;;0.90;;
16254;SDS011;8235;52.198;9.904;2022-10-16T00:25:05;0.80;;;0.70;;
16254;SDS011;8235;52.198;9.904;2022-10-16T00:27:33;2.03;;;0.97;;
16254;SDS011;8235;52.198;9.904;2022-10-16T00:30:00;1.30;;;1.20;;
16254;SDS011;8235;52.198;9.904;2022-10-16T00:32:27;3.07;;;1.00;;
16254;SDS011;8235;52.198;9.904;2022-10-16T00:34:54;1.63;;;1.00;;
16254;SDS011;8235;52.198;9.904;2022-10-16T00:37:21;1.60;;;1.03;;
16254;SDS011;8235;52.198;9.904;2022-10-16T00:39:47;2.23;;;1.20;;
16254;SDS011;8235;52.198;9.904;2022-10-16T00:42:14;1.37;;;1.10;;
16254;SDS011;8235;52.198;9.904;2022-10-16T00:44:44;1.90;;;1.20;;
16254;SDS011;8235;52.198;9.904;2022-10-16T00:47:19;1.90;;;1.10;;
16254;SDS011;8235;52.198;9.904;2022-10-16T00:49:48;2.37;;;1.43;;
16254;SDS011;8235;52.198;9.904;2022-10-16T00:52:17;2.53;;;1.40;;
16254;SDS011;8235;52.198;9.904;2022-10-16T00:54:44;1.80;;;1.40;;
16254;SDS011;8235;52.198;9.904;2022-10-16T00:57:13;1.70;;;1.30;;
16254;SDS011;8235;52.198;9.904;2022-10-16T00:59:40;1.60;;;1.30;;
16254;SDS011;8235;52.198;9.904;2022-10-16T01:02:09;1.80;;;1.57;;
16254;SDS011;8235;52.198;9.904;2022-10-16T01:04:39;2.30;;;2.07;;
16254;SDS011;8235;52.198;9.904;2022-10-16T01:07:09;4.13;;;1.53;;
16254;SDS011;8235;52.198;9.904;2022-10-16T01:09:42;1.53;;;1.43;;
16254;SDS011;8235;52.198;9.904;2022-10-16T01:12:17;2.43;;;1.90;;
16254;SDS011;8235;52.198;9.904;2022-10-16T01:14:53;2.43;;;1.60;;
16254;SDS011;8235;52.198;9.904;2022-10-16T01:17:26;2.67;;;1.47;;
16254;SDS011;8235;52.198;9.904;2022-10-16T01:20:03;1.83;;;1.60;;
16254;SDS011;8235;52.198;9.904;2022-10-16T01:22:37;2.60;;;1.70;;
16254;SDS011;8235;52.198;9.904;2022-10-16T01:25:16;3.70;;;1.77;;
16254;SDS011;8235;52.198;9.904;2022-10-16T01:27:49;3.27;;;1.70;;
16254;SDS011;8235;52.198;9.904;2022-10-16T01:30:17;2.97;;;2.13;;
16254;SDS011;8235;52.198;9.904;2022-10-16T01:32:48;2.13;;;1.93;;
16254;SDS011;8235;52.198;9.904;2022-10-16T01:35:20;2.67;;;1.90;;
16254;SDS011;8235;52.198;9.904;2022-10-16T01:37:53;2.80;;;1.60;;
16254;SDS011;8235;52.198;9.904;2022-10-16T01:40:26;3.57;;;1.70;;
16254;SDS011;8235;52.198;9.904;2022-10-16T01:42:57;2.30;;;1.87;;
16254;SDS011;8235;52.198;9.904;2022-10-16T01:45:27;3.40;;;1.97;;
16254;SDS011;8235;52.198;9.904;2022-10-16T01:47:56;3.23;;;1.40;;
16254;SDS011;8235;52.198;9.904;2022-10-16T01:50:29;1.83;;;1.50;;
16254;SDS011;8235;52.198;9.904;2022-10-16T01:52:57;1.97;;;1.50;;
16254;SDS011;8235;52.198;9.904;2022-10-16T01:55:26;3.00;;;1.50;;
16254;SDS011;8235;52.198;9.904;2022-10-16T01:57:58;3.07;;;1.53;;
16254;SDS011;8235;52.198;9.904;2022-10-16T02:00:27;1.60;;;1.50;;
16254;SDS011;8235;52.198;9.904;2022-10-16T02:02:56;1.70;;;1.47;;
16254;SDS011;8235;52.198;9.904;2022-10-16T02:05:25;1.73;;;1.40;;
16254;SDS011;8235;52.198;9.904;2022-10-16T02:07:56;2.50;;;1.70;;
16254;SDS011;8235;52.198;9.904;2022-10-16T02:10:23;1.83;;;1.70;;
16254;SDS011;8235;52.198;9.904;2022-10-16T02:12:52;2.77;;;1.70;;
16254;SDS011;8235;52.198;9.904;2022-10-16T02:15:26;1.60;;;1.37;;
16254;SDS011;8235;52.198;9.904;2022-10-16T02:17:52;2.67;;;1.50;;
16254;SDS011;8235;52.198;9.904;2022-10-16T02:20:19;2.63;;;1.70;;
16254;SDS011;8235;52.198;9.904;2022-10-16T02:22:52;3.30;;;1.70;;
16254;SDS011;8235;52.198;9.904;2022-10-16T02:25:22;5.27;;;1.70;;
16254;SDS011;8235;52.198;9.904;2022-10-16T02:27:54;2.10;;;1.60;;
16254;SDS011;8235;52.198;9.904;2022-10-16T02:30:24;4.17;;;1.63;;
16254;SDS011;8235;52.198;9.904;2022-10-16T02:32:55;6.27;;;2.30;;
16254;SDS011;8235;52.198;9.904;2022-10-16T02:35:24;2.97;;;1.60;;
16254;SDS011;8235;52.198;9.904;2022-10-16T02:37:53;2.03;;;1.50;;
16254;SDS011;8235;52.198;9.904;2022-10-16T02:40:21;1.93;;;1.50;;
16254;SDS011;8235;52.198;9.904;2022-10-16T02:42:50;3.13;;;1.60;;
16254;SDS011;8235;52.198;9.904;2022-10-16T02:45:18;2.17;;;1.50;;
16254;SDS011;8235;52.198;9.904;2022-10-16T02:47:46;4.30;;;1.77;;
16254;SDS011;8235;52.198;9.904;2022-10-16T02:50:13;3.07;;;1.60;;
16254;SDS011;8235;52.198;9.904;2022-10-16T02:52:40;6.07;;;1.80;;
16254;SDS011;8235;52.198;9.904;2022-10-16T02:55:07;4.10;;;1.90;;
16254;SDS011;8235;52.198;9.904;2022-10-16T02:57:34;4.20;;;1.63;;
16254;SDS011;8235;52.198;9.904;2022-10-16T03:00:02;2.40;;;1.80;;
16254;SDS011;8235;52.198;9.904;2022-10-16T03:02:29;4.30;;;2.37;;
16254;SDS011;8235;52.198;9.904;2022-10-16T03:04:57;2.53;;;1.60;;
16254;SDS011;8235;52.198;9.904;2022-10-16T03:07:24;2.53;;;1.80;;
16254;SDS011;8235;52.198;9.904;2022-10-16T03:09:51;3.97;;;1.80;;
16254;SDS011;8235;52.198;9.904;2022-10-16T03:12:17;4.43;;;2.20;;
16254;SDS011;8235;52.198;9.904;2022-10-16T03:14:44;5.63;;;2.33;;
16254;SDS011;8235;52.198;9.904;2022-10-16T03:17:10;2.97;;;2.03;;
16254;SDS011;8235;52.198;9.904;2022-10-16T03:19:37;3.87;;;2.20;;
16254;SDS011;8235;52.198;9.904;2022-10-16T03:22:06;4.20;;;2.90;;
16254;SDS011;8235;52.198;9.904;2022-10-16T03:24:32;3.80;;;2.27;;
16254;SDS011;8235;52.198;9.904;2022-10-16T03:26:59;4.80;;;2.43;;
16254;SDS011;8235;52.198;9.904;2022-10-16T03:29:26;5.60;;;2.40;;
16254;SDS011;8235;52.198;9.904;2022-10-16T03:31:54;3.17;;;2.60;;
16254;SDS011;8235;52.198;9.904;2022-10-16T03:34:21;3.53;;;2.67;;
16254;SDS011;8235;52.198;9.904;2022-10-16T03:36:47;3.90;;;2.57;;
16254;SDS011;8235;52.198;9.904;2022-10-16T03:39:15;3.90;;;2.43;;
16254;SDS011;8235;52.198;9.904;2022-10-16T03:41:42;3.30;;;2.30;;
16254;SDS011;8235;52.198;9.904;2022-10-16T03:44:08;3.77;;;2.20;;
16254;SDS011;8235;52.198;9.904;2022-10-16T03:46:35;3.17;;;2.27;;
16254;SDS011;8235;52.198;9.904;2022-10-16T03:49:02;3.90;;;3.07;;
16254;SDS011;8235;52.198;9.904;2022-10-16T03:51:28;4.37;;;2.90;;
16254;SDS011;8235;52.198;9.904;2022-10-16T03:53:55;5.50;;;2.67;;
16254;SDS011;8235;52.198;9.904;2022-10-16T03:56:23;3.63;;;2.90;;
16254;SDS011;8235;52.198;9.904;2022-10-16T03:58:49;4.33;;;2.53;;
16254;SDS011;8235;52.198;9.904;2022-10-16T04:01:16;5.23;;;2.80;;
16254;SDS011;8235;52.198;9.904;2022-10-16T04:03:43;3.60;;;2.90;;
16254;SDS011;8235;52.198;9.904;2022-10-16T04:06:09;5.47;;;3.67;;
16254;SDS011;8235;52.198;9.904;2022-10-16T04:08:36;4.60;;;3.47;;
16254;SDS011;8235;52.198;9.904;2022-10-16T04:11:04;5.57;;;2.63;;
16254;SDS011;8235;52.198;9.904;2022-10-16T04:13:32;3.97;;;2.73;;
16254;SDS011;8235;52.198;9.904;2022-10-16T04:15:58;3.53;;;2.87;;
16254;SDS011;8235;52.198;9.904;2022-10-16T04:18:25;4.60;;;3.20;;
16254;SDS011;8235;52.198;9.904;2022-10-16T04:20:52;4.90;;;2.70;;
16254;SDS011;8235;52.198;9.904;2022-10-16T04:23:19;3.53;;;3.00;;
16254;SDS011;8235;52.198;9.904;2022-10-16T04:25:46;3.00;;;2.80;;
16254;SDS011;8235;52.198;9.904;2022-10-16T04:28:12;4.07;;;2.67;;
16254;SDS011;8235;52.198;9.904;2022-10-16T04:30:40;4.63;;;3.33;;
16254;SDS011;8235;52.198;9.904;2022-10-16T04:33:08;4.57;;;2.80;;
16254;SDS011;8235;52.198;9.904;2022-10-16T04:35:34;5.50;;;2.47;;
16254;SDS011;8235;52.198;9.904;2022-10-16T04:38:01;7.30;;;2.57;;
16254;SDS011;8235;52.198;9.904;2022-10-16T04:40:29;3.53;;;2.50;;
16254;SDS011;8235;52.198;9.904;2022-10-16T04:42:57;3.80;;;2.80;;
16254;SDS011;8235;52.198;9.904;2022-10-16T04:45:24;5.60;;;3.40;;
16254;SDS011;8235;52.198;9.904;2022-10-16T04:47:52;3.97;;;3.07;;
16254;SDS011;8235;52.198;9.904;2022-10-16T04:50:18;3.50;;;3.00;;
16254;SDS011;8235;52.198;9.904;2022-10-16T04:52:44;3.23;;;2.93;;
16254;SDS011;8235;52.198;9.904;2022-10-16T04:55:11;3.70;;;2.87;;
16254;SDS011;8235;52.198;9.904;2022-10-16T04:57:38;4.97;;;3.00;;
16254;SDS011;8235;52.198;9.904;2022-10-16T05:00:05;4.90;;;3.47;;
16254;SDS011;8235;52.198;9.904;2022-10-16T05:02:33;5.57;;;3.23;;
16254;SDS011;8235;52.198;9.904;2022-10-16T05:05:01;5.73;;;3.03;;
16254;SDS011;8235;52.198;9.904;2022-10-16T05:07:27;3.40;;;2.77;;
16254;SDS011;8235;52.198;9.904;2022-10-16T05:09:53;4.13;;;2.77;;
16254;SDS011;8235;52.198;9.904;2022-10-16T05:12:20;3.93;;;3.03;;
16254;SDS011;8235;52.198;9.904;2022-10-16T05:14:46;6.77;;;3.33;;
16254;SDS011;8235;52.198;9.904;2022-10-16T05:17:13;3.60;;;3.20;;
16254;SDS011;8235;52.198;9.904;2022-10-16T05:19:39;3.53;;;2.90;;
16254;SDS011;8235;52.198;9.904;2022-10-16T05:22:07;6.07;;;3.63;;
16254;SDS011;8235;52.198;9.904;2022-10-16T05:24:33;4.00;;;3.33;;
16254;SDS011;8235;52.198;9.904;2022-10-16T05:27:00;3.77;;;3.10;;
16254;SDS011;8235;52.198;9.904;2022-10-16T05:29:26;5.00;;;3.00;;
16254;SDS011;8235;52.198;9.904;2022-10-16T05:31:53;4.77;;;3.10;;
16254;SDS011;8235;52.198;9.904;2022-10-16T05:34:19;4.27;;;2.70;;
16254;SDS011;8235;52.198;9.904;2022-10-16T05:36:46;4.20;;;2.80;;
16254;SDS011;8235;52.198;9.904;2022-10-16T05:39:15;3.20;;;2.70;;
16254;SDS011;8235;52.198;9.904;2022-10-16T05:41:41;6.77;;;3.23;;
16254;SDS011;8235;52.198;9.904;2022-10-16T05:44:08;4.37;;;2.60;;
16254;SDS011;8235;52.198;9.904;2022-10-16T05:46:34;3.67;;;2.93;;
16254;SDS011;8235;52.198;9.904;2022-10-16T05:49:01;5.97;;;3.33;;
16254;SDS011;8235;52.198;9.904;2022-10-16T05:51:27;2.67;;;2.47;;
16254;SDS011;8235;52.198;9.904;2022-10-16T05:53:54;5.30;;;2.40;;
16254;SDS011;8235;52.198;9.904;2022-10-16T05:56:22;4.30;;;2.27;;
16254;SDS011;8235;52.198;9.904;2022-10-16T05:58:48;2.23;;;1.80;;
16254;SDS011;8235;52.198;9.904;2022-10-16T06:01:15;4.97;;;2.00;;
16254;SDS011;8235;52.198;9.904;2022-10-16T06:03:44;2.50;;;1.53;;
16254;SDS011;8235;52.198;9.904;2022-10-16T06:06:11;3.37;;;1.73;;
16254;SDS011;8235;52.198;9.904;2022-10-16T06:08:39;4.40;;;2.07;;
16254;SDS011;8235;52.198;9.904;2022-10-16T06:11:06;3.03;;;1.40;;
16254;SDS011;8235;52.198;9.904;2022-10-16T06:13:35;2.30;;;2.10;;
16254;SDS011;8235;52.198;9.904;2022-10-16T06:16:02;3.77;;;1.90;;
16254;SDS011;8235;52.198;9.904;2022-10-16T06:18:30;3.13;;;2.00;;
16254;SDS011;8235;52.198;9.904;2022-10-16T06:20:57;3.60;;;1.70;;
16254;SDS011;8235;52.198;9.904;2022-10-16T06:23:23;3.40;;;2.23;;
16254;SDS011;8235;52.198;9.904;2022-10-16T06:25:51;2.83;;;1.80;;
16254;SDS011;8235;52.198;9.904;2022-10-16T06:28:17;3.83;;;2.00;;
16254;SDS011;8235;52.198;9.904;2022-10-16T06:30:45;4.03;;;2.20;;
16254;SDS011;8235;52.198;9.904;2022-10-16T06:33:12;2.63;;;2.00;;
16254;SDS011;8235;52.198;9.904;2022-10-16T06:35:39;3.30;;;1.93;;
16254;SDS011;8235;52.198;9.904;2022-10-16T06:38:05;2.13;;;1.50;;
16254;SDS011;8235;52.198;9.904;2022-10-16T06:40:32;1.57;;;1.43;;
16254;SDS011;8235;52.198;9.904;2022-10-16T06:42:58;2.13;;;1.70;;
16254;SDS011;8235;52.198;9.904;2022-10-16T06:45:25;2.43;;;1.83;;
16254;SDS011;8235;52.198;9.904;2022-10-16T06:47:53;5.27;;;3.67;;
16254;SDS011;8235;52.198;9.904;2022-10-16T06:50:19;3.17;;;2.33;;
16254;SDS011;8235;52.198;9.904;2022-10-16T06:52:46;2.07;;;1.60;;
16254;SDS011;8235;52.198;9.904;2022-10-16T06:55:12;1.60;;;1.50;;
16254;SDS011;8235;52.198;9.904;2022-10-16T06:57:39;2.37;;;1.57;;
16254;SDS011;8235;52.198;9.904;2022-10-16T07:00:06;4.03;;;2.17;;
16254;SDS011;8235;52.198;9.904;2022-10-16T07:02:33;2.40;;;2.07;;
16254;SDS011;8235;52.198;9.904;2022-10-16T07:05:01;2.23;;;1.23;;
16254;SDS011;8235;52.198;9.904;2022-10-16T07:07:27;1.63;;;1.50;;
16254;SDS011;8235;52.198;9.904;2022-10-16T07:09:54;2.40;;;1.20;;
16254;SDS011;8235;52.198;9.904;2022-10-16T07:12:20;2.80;;;1.50;;
16254;SDS011;8235;52.198;9.904;2022-10-16T07:14:47;1.20;;;1.03;;
16254;SDS011;8235;52.198;9.904;2022-10-16T07:17:13;2.27;;;1.23;;
16254;SDS011;8235;52.198;9.904;2022-10-16T07:19:40;1.73;;;1.13;;
16254;SDS011;8235;52.198;9.904;2022-10-16T07:22:08;2.93;;;1.30;;
16254;SDS011;8235;52.198;9.904;2022-10-16T07:24:34;4.23;;;1.23;;
16254;SDS011;8235;52.198;9.904;2022-10-16T07:27:01;1.30;;;1.00;;
16254;SDS011;8235;52.198;9.904;2022-10-16T07:29:27;1.10;;;1.00;;
16254;SDS011;8235;52.198;9.904;2022-10-16T07:31:54;1.30;;;0.93;;
16254;SDS011;8235;52.198;9.904;2022-10-16T07:34:20;3.20;;;1.43;;
16254;SDS011;8235;52.198;9.904;2022-10-16T07:36:47;1.47;;;0.93;;
16254;SDS011;8235;52.198;9.904;2022-10-16T07:39:16;0.83;;;0.80;;
16254;SDS011;8235;52.198;9.904;2022-10-16T07:41:43;0.90;;;0.80;;
16254;SDS011;8235;52.198;9.904;2022-10-16T07:44:09;0.80;;;0.80;;
16254;SDS011;8235;52.198;9.904;2022-10-16T07:46:36;0.70;;;0.70;;
16254;SDS011;8235;52.198;9.904;2022-10-16T07:49:03;1.30;;;0.83;;
16254;SDS011;8235;52.198;9.904;2022-10-16T07:51:29;2.30;;;0.90;;
16254;SDS011;8235;52.198;9.904;2022-10-16T07:53:56;1.93;;;0.70;;
16254;SDS011;8235;52.198;9.904;2022-10-16T07:56:24;1.90;;;0.70;;
16254;SDS011;8235;52.198;9.904;2022-10-16T07:58:50;0.60;;;0.60;;
16254;SDS011;8235;52.198;9.904;2022-10-16T08:01:17;1.87;;;0.67;;
16254;SDS011;8235;52.198;9.904;2022-10-16T08:03:45;1.50;;;0.70;;
16254;SDS011;8235;52.198;9.904;2022-10-16T08:06:12;1.23;;;0.60;;
16254;SDS011;8235;52.198;9.904;2022-10-16T08:08:39;2.10;;;0.87;;
16254;SDS011;8235;52.198;9.904;2022-10-16T08:11:06;0.83;;;0.60;;
16254;SDS011;8235;52.198;9.904;2022-10-16T08:13:34;0.57;;;0.43;;
16254;SDS011;8235;52.198;9.904;2022-10-16T08:16:01;1.37;;;0.73;;
16254;SDS011;8235;52.198;9.904;2022-10-16T08:18:28;1.40;;;0.80;;
16254;SDS011;8235;52.198;9.904;2022-10-16T08:20:55;1.80;;;0.70;;
16254;SDS011;8235;52.198;9.904;2022-10-16T08:23:22;1.10;;;0.80;;
16254;SDS011;8235;52.198;9.904;2022-10-16T08:25:51;3.40;;;1.03;;
16254;SDS011;8235;52.198;9.904;2022-10-16T08:28:18;1.27;;;0.90;;
16254;SDS011;8235;52.198;9.904;2022-10-16T08:30:45;1.33;;;1.00;;
16254;SDS011;8235;52.198;9.904;2022-10-16T08:33:12;2.57;;;1.03;;
16254;SDS011;8235;52.198;9.904;2022-10-16T08:35:39;1.60;;;0.63;;
16254;SDS011;8235;52.198;9.904;2022-10-16T08:38:05;2.00;;;0.77;;
16254;SDS011;8235;52.198;9.904;2022-10-16T08:40:33;2.00;;;1.00;;
16254;SDS011;8235;52.198;9.904;2022-10-16T08:43:09;1.23;;;0.70;;
16254;SDS011;8235;52.198;9.904;2022-10-16T08:45:55;5.00;;;0.80;;
16254;SDS011;8235;52.198;9.904;2022-10-16T08:48:41;1.93;;;0.80;;
16254;SDS011;8235;52.198;9.904;2022-10-16T08:51:12;1.17;;;0.60;;
16254;SDS011;8235;52.198;9.904;2022-10-16T08:53:46;1.60;;;0.90;;
16254;SDS011;8235;52.198;9.904;2022-10-16T08:56:18;0.80;;;0.77;;
16254;SDS011;8235;52.198;9.904;2022-10-16T08:58:46;1.33;;;0.60;;
16254;SDS011;8235;52.198;9.904;2022-10-16T09:01:16;0.90;;;0.50;;
16254;SDS011;8235;52.198;9.904;2022-10-16T09:03:50;1.40;;;0.67;;
16254;SDS011;8235;52.198;9.904;2022-10-16T09:06:31;0.70;;;0.60;;
16254;SDS011;8235;52.198;9.904;2022-10-16T09:09:18;1.30;;;0.60;;
16254;SDS011;8235;52.198;9.904;2022-10-16T09:12:03;0.70;;;0.70;;
16254;SDS011;8235;52.198;9.904;2022-10-16T09:14:47;1.07;;;0.80;;
16254;SDS011;8235;52.198;9.904;2022-10-16T09:17:26;0.90;;;0.50;;
16254;SDS011;8235;52.198;9.904;2022-10-16T09:20:05;1.83;;;0.77;;
16254;SDS011;8235;52.198;9.904;2022-10-16T09:22:43;1.63;;;0.50;;
16254;SDS011;8235;52.198;9.904;2022-10-16T09:25:11;3.07;;;0.77;;
16254;SDS011;8235;52.198;9.904;2022-10-16T09:27:40;1.17;;;0.60;;
16254;SDS011;8235;52.198;9.904;2022-10-16T09:30:12;0.80;;;0.50;;
16254;SDS011;8235;52.198;9.904;2022-10-16T09:32:41;0.50;;;0.50;;
16254;SDS011;8235;52.198;9.904;2022-10-16T09:35:11;1.00;;;0.53;;
16254;SDS011;8235;52.198;9.904;2022-10-16T09:37:40;1.80;;;0.50;;
16254;SDS011;8235;52.198;9.904;2022-10-16T09:40:11;0.87;;;0.50;;
16254;SDS011;8235;52.198;9.904;2022-10-16T09:42:39;1.93;;;0.50;;
16254;SDS011;8235;52.198;9.904;2022-10-16T09:45:18;1.80;;;0.67;;
16254;SDS011;8235;52.198;9.904;2022-10-16T09:47:49;1.97;;;0.80;;
16254;SDS011;8235;52.198;9.904;2022-10-16T09:50:20;1.53;;;0.50;;
16254;SDS011;8235;52.198;9.904;2022-10-16T09:52:49;2.27;;;0.60;;
16254;SDS011;8235;52.198;9.904;2022-10-16T09:55:16;1.10;;;0.40;;
16254;SDS011;8235;52.198;9.904;2022-10-16T09:57:49;1.07;;;0.40;;
16254;SDS011;8235;52.198;9.904;2022-10-16T10:00:16;3.00;;;0.53;;
16254;SDS011;8235;52.198;9.904;2022-10-16T10:02:44;1.67;;;0.70;;
16254;SDS011;8235;52.198;9.904;2022-10-16T10:05:18;2.50;;;0.60;;
16254;SDS011;8235;52.198;9.904;2022-10-16T10:07:52;2.97;;;0.60;;
16254;SDS011;8235;52.198;9.904;2022-10-16T10:10:22;1.43;;;0.60;;
16254;SDS011;8235;52.198;9.904;2022-10-16T10:12:50;2.37;;;0.87;;
16254;SDS011;8235;52.198;9.904;2022-10-16T10:15:16;1.20;;;0.40;;
16254;SDS011;8235;52.198;9.904;2022-10-16T10:17:47;0.87;;;0.50;;
16254;SDS011;8235;52.198;9.904;2022-10-16T10:20:18;1.47;;;0.50;;
16254;SDS011;8235;52.198;9.904;2022-10-16T10:22:51;2.70;;;0.60;;
16254;SDS011;8235;52.198;9.904;2022-10-16T10:25:24;1.33;;;0.30;;
16254;SDS011;8235;52.198;9.904;2022-10-16T10:28:09;2.63;;;0.63;;
16254;SDS011;8235;52.198;9.904;2022-10-16T10:31:05;1.60;;;0.50;;
16254;SDS011;8235;52.198;9.904;2022-10-16T10:33:41;2.33;;;0.40;;
16254;SDS011;8235;52.198;9.904;2022-10-16T10:36:25;1.20;;;0.47;;
16254;SDS011;8235;52.198;9.904;2022-10-16T10:38:56;3.17;;;0.70;;
16254;SDS011;8235;52.198;9.904;2022-10-16T10:44:36;0.73;;;0.57;;
16254;SDS011;8235;52.198;9.904;2022-10-16T10:47:13;4.00;;;0.70;;
16254;SDS011;8235;52.198;9.904;2022-10-16T10:49:51;0.60;;;0.47;;
16254;SDS011;8235;52.198;9.904;2022-10-16T10:52:33;1.87;;;0.50;;
16254;SDS011;8235;52.198;9.904;2022-10-16T10:55:12;1.90;;;0.67;;
16254;SDS011;8235;52.198;9.904;2022-10-16T10:57:51;1.03;;;0.60;;
16254;SDS011;8235;52.198;9.904;2022-10-16T11:00:31;1.30;;;0.40;;
16254;SDS011;8235;52.198;9.904;2022-10-16T11:03:11;1.13;;;0.80;;
16254;SDS011;8235;52.198;9.904;2022-10-16T11:05:47;1.47;;;0.60;;
16254;SDS011;8235;52.198;9.904;2022-10-16T11:08:18;1.30;;;0.70;;
16254;SDS011;8235;52.198;9.904;2022-10-16T11:10:50;1.10;;;0.63;;
16254;SDS011;8235;52.198;9.904;2022-10-16T11:13:23;3.67;;;0.40;;
16254;SDS011;8235;52.198;9.904;2022-10-16T11:15:58;1.23;;;0.40;;
16254;SDS011;8235;52.198;9.904;2022-10-16T11:18:28;0.50;;;0.50;;
16254;SDS011;8235;52.198;9.904;2022-10-16T11:21:02;1.77;;;0.60;;
16254;SDS011;8235;52.198;9.904;2022-10-16T11:23:35;1.60;;;0.40;;
16254;SDS011;8235;52.198;9.904;2022-10-16T11:26:09;0.80;;;0.40;;
16254;SDS011;8235;52.198;9.904;2022-10-16T11:28:42;1.67;;;0.40;;
16254;SDS011;8235;52.198;9.904;2022-10-16T11:31:13;2.13;;;0.53;;
16254;SDS011;8235;52.198;9.904;2022-10-16T11:33:45;1.97;;;0.40;;
16254;SDS011;8235;52.198;9.904;2022-10-16T11:36:16;0.87;;;0.40;;
16254;SDS011;8235;52.198;9.904;2022-10-16T11:38:51;2.30;;;1.03;;
16254;SDS011;8235;52.198;9.904;2022-10-16T11:41:26;1.53;;;0.60;;
16254;SDS011;8235;52.198;9.904;2022-10-16T11:44:05;1.17;;;0.50;;
16254;SDS011;8235;52.198;9.904;2022-10-16T11:46:38;1.37;;;0.50;;
16254;SDS011;8235;52.198;9.904;2022-10-16T11:49:11;2.73;;;0.30;;
16254;SDS011;8235;52.198;9.904;2022-10-16T11:51:42;0.63;;;0.30;;
16254;SDS011;8235;52.198;9.904;2022-10-16T11:54:17;1.57;;;0.40;;
16254;SDS011;8235;52.198;9.904;2022-10-16T11:56:48;1.03;;;0.30;;
16254;SDS011;8235;52.198;9.904;2022-10-16T11:59:21;1.73;;;0.60;;
16254;SDS011;8235;52.198;9.904;2022-10-16T12:01:54;1.67;;;0.63;;
16254;SDS011;8235;52.198;9.904;2022-10-16T12:04:43;0.97;;;0.30;;
16254;SDS011;8235;52.198;9.904;2022-10-16T12:07:16;1.13;;;0.20;;
16254;SDS011;8235;52.198;9.904;2022-10-16T12:09:50;0.93;;;0.33;;
16254;SDS011;8235;52.198;9.904;2022-10-16T12:12:23;1.60;;;0.30;;
16254;SDS011;8235;52.198;9.904;2022-10-16T12:14:59;1.80;;;0.30;;
16254;SDS011;8235;52.198;9.904;2022-10-16T12:17:27;1.27;;;0.53;;
16254;SDS011;8235;52.198;9.904;2022-10-16T12:20:00;0.70;;;0.40;;
16254;SDS011;8235;52.198;9.904;2022-10-16T12:22:41;0.53;;;0.20;;
16254;SDS011;8235;52.198;9.904;2022-10-16T12:25:20;1.30;;;0.30;;
16254;SDS011;8235;52.198;9.904;2022-10-16T12:27:53;1.30;;;0.40;;
16254;SDS011;8235;52.198;9.904;2022-10-16T12:30:22;2.13;;;0.33;;
16254;SDS011;8235;52.198;9.904;2022-10-16T12:32:54;0.80;;;0.30;;
16254;SDS011;8235;52.198;9.904;2022-10-16T12:35:22;0.97;;;0.23;;
16254;SDS011;8235;52.198;9.904;2022-10-16T12:37:51;1.07;;;0.37;;
16254;SDS011;8235;52.198;9.904;2022-10-16T12:40:27;1.03;;;0.40;;
16254;SDS011;8235;52.198;9.904;2022-10-16T12:42:55;1.10;;;0.50;;
16254;SDS011;8235;52.198;9.904;2022-10-16T12:45:27;0.53;;;0.27;;
16254;SDS011;8235;52.198;9.904;2022-10-16T12:47:56;1.60;;;0.30;;
16254;SDS011;8235;52.198;9.904;2022-10-16T12:50:27;1.37;;;0.50;;
16254;SDS011;8235;52.198;9.904;2022-10-16T12:52:58;0.87;;;0.40;;
16254;SDS011;8235;52.198;9.904;2022-10-16T12:55:27;2.10;;;0.40;;
16254;SDS011;8235;52.198;9.904;2022-10-16T12:58:08;2.13;;;0.40;;
16254;SDS011;8235;52.198;9.904;2022-10-16T13:00:44;0.27;;;0.23;;
16254;SDS011;8235;52.198;9.904;2022-10-16T13:03:24;0.93;;;0.30;;
16254;SDS011;8235;52.198;9.904;2022-10-16T13:06:08;1.37;;;0.30;;
16254;SDS011;8235;52.198;9.904;2022-10-16T13:08:50;1.17;;;0.23;;
16254;SDS011;8235;52.198;9.904;2022-10-16T13:11:29;0.93;;;0.50;;
16254;SDS011;8235;52.198;9.904;2022-10-16T13:14:29;1.10;;;0.50;;
16254;SDS011;8235;52.198;9.904;2022-10-16T13:17:09;0.83;;;0.33;;
16254;SDS011;8235;52.198;9.904;2022-10-16T13:19:43;0.77;;;0.40;;
16254;SDS011;8235;52.198;9.904;2022-10-16T13:22:14;2.53;;;0.87;;
16254;SDS011;8235;52.198;9.904;2022-10-16T13:24:53;1.63;;;1.00;;
16254;SDS011;8235;52.198;9.904;2022-10-16T13:27:31;2.40;;;0.70;;
16254;SDS011;8235;52.198;9.904;2022-10-16T13:30:11;1.20;;;0.30;;
16254;SDS011;8235;52.198;9.904;2022-10-16T13:32:43;0.23;;;0.20;;
16254;SDS011;8235;52.198;9.904;2022-10-16T13:35:19;1.07;;;0.40;;
16254;SDS011;8235;52.198;9.904;2022-10-16T13:37:47;1.40;;;0.60;;
16254;SDS011;8235;52.198;9.904;2022-10-16T13:40:18;1.13;;;0.53;;
16254;SDS011;8235;52.198;9.904;2022-10-16T13:42:47;2.13;;;0.93;;
16254;SDS011;8235;52.198;9.904;2022-10-16T13:45:18;2.97;;;0.83;;
16254;SDS011;8235;52.198;9.904;2022-10-16T13:47:45;2.13;;;0.70;;
16254;SDS011;8235;52.198;9.904;2022-10-16T13:50:12;2.30;;;0.50;;
16254;SDS011;8235;52.198;9.904;2022-10-16T13:52:41;1.30;;;0.50;;
16254;SDS011;8235;52.198;9.904;2022-10-16T13:55:10;5.57;;;0.40;;
16254;SDS011;8235;52.198;9.904;2022-10-16T13:57:38;2.30;;;0.30;;
16254;SDS011;8235;52.198;9.904;2022-10-16T14:00:18;1.27;;;0.30;;
16254;SDS011;8235;52.198;9.904;2022-10-16T14:02:45;2.17;;;0.30;;
16254;SDS011;8235;52.198;9.904;2022-10-16T14:05:18;1.57;;;0.20;;
16254;SDS011;8235;52.198;9.904;2022-10-16T14:07:47;0.50;;;0.27;;
16254;SDS011;8235;52.198;9.904;2022-10-16T14:10:20;1.93;;;0.40;;
16254;SDS011;8235;52.198;9.904;2022-10-16T14:12:56;1.37;;;0.43;;
16254;SDS011;8235;52.198;9.904;2022-10-16T14:15:26;0.60;;;0.40;;
16254;SDS011;8235;52.198;9.904;2022-10-16T14:17:52;0.87;;;0.40;;
16254;SDS011;8235;52.198;9.904;2022-10-16T14:20:20;0.97;;;0.63;;
16254;SDS011;8235;52.198;9.904;2022-10-16T14:22:57;1.53;;;0.30;;
16254;SDS011;8235;52.198;9.904;2022-10-16T14:25:26;1.57;;;0.50;;
16254;SDS011;8235;52.198;9.904;2022-10-16T14:27:58;1.33;;;0.40;;
16254;SDS011;8235;52.198;9.904;2022-10-16T14:30:28;1.57;;;0.50;;
16254;SDS011;8235;52.198;9.904;2022-10-16T14:32:56;2.20;;;0.47;;
16254;SDS011;8235;52.198;9.904;2022-10-16T14:35:30;0.67;;;0.30;;
16254;SDS011;8235;52.198;9.904;2022-10-16T14:37:59;1.13;;;0.50;;
16254;SDS011;8235;52.198;9.904;2022-10-16T14:40:27;0.50;;;0.40;;
16254;SDS011;8235;52.198;9.904;2022-10-16T14:42:56;1.23;;;0.50;;
16254;SDS011;8235;52.198;9.904;2022-10-16T14:45:24;0.47;;;0.40;;
16254;SDS011;8235;52.198;9.904;2022-10-16T14:47:56;1.70;;;0.40;;
16254;SDS011;8235;52.198;9.904;2022-10-16T14:50:24;0.50;;;0.33;;
16254;SDS011;8235;52.198;9.904;2022-10-16T14:52:51;0.67;;;0.40;;
16254;SDS011;8235;52.198;9.904;2022-10-16T14:55:17;0.30;;;0.13;;
16254;SDS011;8235;52.198;9.904;2022-10-16T14:57:45;0.80;;;0.40;;
16254;SDS011;8235;52.198;9.904;2022-10-16T15:00:15;0.63;;;0.30;;
16254;SDS011;8235;52.198;9.904;2022-10-16T15:02:44;2.83;;;0.50;;
16254;SDS011;8235;52.198;9.904;2022-10-16T15:05:14;0.90;;;0.40;;
16254;SDS011;8235;52.198;9.904;2022-10-16T15:07:43;0.50;;;0.30;;
16254;SDS011;8235;52.198;9.904;2022-10-16T15:10:10;0.87;;;0.40;;
16254;SDS011;8235;52.198;9.904;2022-10-16T15:12:37;0.90;;;0.40;;
16254;SDS011;8235;52.198;9.904;2022-10-16T15:15:15;1.37;;;0.50;;
16254;SDS011;8235;52.198;9.904;2022-10-16T15:17:50;1.33;;;0.53;;
16254;SDS011;8235;52.198;9.904;2022-10-16T15:20:20;1.67;;;0.60;;